Terminal Aerodrome Forecast
Issued by NWS Cleveland, OH

Home | Current Version | Previous Version | Graphics & Text | Print | Product List | Glossary On
Versions: 1 2 3 4 5 6 7 8 9 10 11 12 13 14 15 16 17 18 19 20 21 22 23 24 25 26 27
852
FTUS41 KCLE 250531
TAFCLE
TAF
KCLE 250531Z 2506/2612 13010KT P6SM -SHRA SCT019 OVC030
      TEMPO 2509/2512 BKN019 OVC025
     FM251200 13005KT P6SM -SHRA OVC015
     FM251700 36008KT 5SM -SHRA SCT015 OVC025
     FM252100 34006KT P6SM -SHRA OVC010
     FM260000 29008KT P6SM OVC007=

USA.gov is the U.S. government's official web portal to all federal, state and local government web resources and services.